You are not logged in, Click here to log in
威尼斯-泰塞拉機場VCE / LIPZ 義大利威尼斯以北 4.3海里(8.0公里;4.9英里) 的泰塞拉島(即義大利半島)
ICAO: LIPZ Country: 義大利威尼斯以北 4.3海里(8.0公里;4.9英里) 的泰塞拉島(即義大利半島)
Latitude: 45.5053 Longitude: 12.3519
Total Arrivals: 3 Total Departures: 3
Latest Arrival: AZ1465 (LIRF-LIPZ)Arthur. Kung Latest Departure: OS528 (LIPZ-LOWW)Arthur. Kung
Scenery:
METAR : LIPZ 190320Z 04005KT CAVOK 05/04 Q1021 NOSIG

威尼斯-泰塞拉機場VCE

You are accessing this site from IP address 35.175.113.29. Virtual Airline. CMS by phpVMS.Website designed by Zumeweb and edited by Theo Bearman.
There is 0 User(s) Online: | and 10 Guest(s) Online.
All information on this site is for fight simulation purposes only. This site is for flight logging for pilots of Virtual Airline&模擬飛行論壇 FlySim only.